Terminal Aerodrome Forecast
Issued by NWS Twin Cities, MN

Home | Current Version | Previous Version | Text Only | Print | Product List | Glossary On
Versions: 1 2 3 4 5 6 7 8 9 10 11 12 13 14 15 16 17 18 19 20 21 22 23 24 25 26
000
FTUS43 KMPX 280520
TAFMSP
TAF
KMSP 280520Z 2806/2912 21005KT P6SM BKN100 BKN250
     FM280900 21005KT P6SM SCT100
     FM281400 28011KT P6SM SCT040 SCT250
     FM281700 29016G25KT P6SM BKN050
     FM290100 28010KT P6SM BKN050=

USA.gov is the U.S. government's official web portal to all federal, state and local government web resources and services.